Terminal Aerodrome Forecast
Issued by NWS

Home | Current Version | Previous Version | Text Only | Print | Product List | Glossary On
Versions: 1 2 3 4 5 6 7 8 9 10 11 12 13 14 15 16 17
037
FTAK31 PAJN 240520
TAFAJN
TAF
PAJN 240520Z 2406/2506 08010KT P6SM FEW010 BKN035 OVC050
     FM241200 09015KT 5SM -RASN BR BKN025 OVC035 WS020/14035KT
     FM241500 11018G28KT P6SM -RA FEW004 BKN025 OVC035 WS020/14045KT
     FM242200 11024G36KT P6SM -RA BKN025 OVC035 WS020/14050KT=

USA.gov is the U.S. government's official web portal to all federal, state and local government web resources and services.